createdAt,value
2019-05-22T00:00:23.624Z,12.60
2019-05-22T00:02:52.621Z,8.60
2019-05-22T00:05:34.193Z,10.40
2019-05-22T00:08:08.758Z,11.03
2019-05-22T00:10:39.592Z,11.47
2019-05-22T00:13:10.534Z,14.70
2019-05-22T00:15:39.947Z,15.47
2019-05-22T00:18:10.465Z,12.30
2019-05-22T00:20:39.300Z,14.87
2019-05-22T00:23:09.941Z,13.17
2019-05-22T00:25:39.108Z,13.77
2019-05-22T00:28:08.721Z,13.30
2019-05-22T00:30:39.707Z,13.20
2019-05-22T00:33:10.209Z,17.57
2019-05-22T00:35:40.012Z,16.70
2019-05-22T00:38:10.046Z,16.40
2019-05-22T00:40:45.339Z,18.37
2019-05-22T00:43:17.307Z,15.97
2019-05-22T00:45:49.072Z,17.73
2019-05-22T00:48:21.776Z,16.13
2019-05-22T00:51:00.859Z,17.40
2019-05-22T00:53:49.923Z,20.30
2019-05-22T00:56:38.955Z,21.57
2019-05-22T00:59:13.877Z,18.53
2019-05-22T01:01:49.946Z,17.20
2019-05-22T01:04:23.171Z,17.83
2019-05-22T01:06:54.398Z,17.33
2019-05-22T01:09:39.840Z,19.50
2019-05-22T01:12:19.231Z,17.70
2019-05-22T01:14:50.827Z,22.57
2019-05-22T01:17:21.691Z,22.47
2019-05-22T01:19:54.730Z,23.10
2019-05-22T01:22:26.588Z,21.60
2019-05-22T01:24:57.054Z,26.03
2019-05-22T01:27:26.839Z,22.07
2019-05-22T01:29:57.289Z,24.13
2019-05-22T01:32:37.838Z,22.90
2019-05-22T01:35:09.826Z,22.67
2019-05-22T01:37:40.413Z,30.13
2019-05-22T01:40:17.983Z,19.73
2019-05-22T01:42:51.722Z,22.20
2019-05-22T01:45:22.754Z,23.03
2019-05-22T01:48:00.421Z,22.43
2019-05-22T01:50:41.550Z,21.97
2019-05-22T01:53:12.387Z,25.53
2019-05-22T01:55:44.872Z,23.73
2019-05-22T01:58:15.970Z,26.23
2019-05-22T02:00:44.975Z,23.97
2019-05-22T02:03:14.968Z,27.80
2019-05-22T02:05:45.214Z,26.73
2019-05-22T02:08:15.632Z,28.07
2019-05-22T02:10:46.260Z,29.30
2019-05-22T02:13:19.862Z,28.30
2019-05-22T02:15:49.147Z,26.30
2019-05-22T02:18:19.694Z,25.93
2019-05-22T02:20:50.369Z,29.70
2019-05-22T02:23:20.342Z,29.40
2019-05-22T02:25:50.665Z,31.60
2019-05-22T02:28:22.029Z,27.57
2019-05-22T02:30:52.409Z,26.63
2019-05-22T02:33:22.621Z,24.47
2019-05-22T02:35:55.146Z,22.43
2019-05-22T02:38:25.884Z,19.57
2019-05-22T02:40:59.049Z,19.67
2019-05-22T02:43:29.137Z,17.30
2019-05-22T02:45:59.762Z,18.83
2019-05-22T02:48:34.070Z,19.83
2019-05-22T02:51:20.290Z,20.40
2019-05-22T02:53:53.707Z,21.10
2019-05-22T02:56:22.913Z,20.53
2019-05-22T02:58:55.069Z,19.63
2019-05-22T03:01:25.829Z,18.77
2019-05-22T03:03:55.563Z,16.77
2019-05-22T03:06:24.785Z,19.53
2019-05-22T03:09:03.201Z,23.67
2019-05-22T03:11:41.288Z,21.33
2019-05-22T03:14:17.021Z,21.70
2019-05-22T03:17:00.902Z,17.33
2019-05-22T03:19:42.943Z,17.43
2019-05-22T03:22:21.624Z,19.90
2019-05-22T03:28:22.755Z,20.03
2019-05-22T03:30:51.862Z,23.73
2019-05-22T03:33:21.714Z,17.73
2019-05-22T03:36:01.285Z,17.27
2019-05-22T03:38:45.944Z,18.47
2019-05-22T03:41:16.809Z,16.13
2019-05-22T03:43:48.738Z,19.57
2019-05-22T03:46:24.483Z,20.40
2019-05-22T03:49:28.149Z,17.00
2019-05-22T03:51:48.120Z,18.07
2019-05-22T03:54:25.234Z,17.37
2019-05-22T03:56:56.902Z,15.10
2019-05-22T03:59:37.018Z,18.03
2019-05-22T04:02:03.979Z,14.07
2019-05-22T04:04:47.001Z,12.43
2019-05-22T04:07:22.076Z,11.67
2019-05-22T04:09:53.184Z,12.17
2019-05-22T04:12:33.744Z,10.00
2019-05-22T04:15:04.989Z,8.90
2019-05-22T04:17:38.289Z,10.77
2019-05-22T04:20:36.469Z,8.33
2019-05-22T04:23:06.797Z,9.57
2019-05-22T04:25:40.299Z,8.43
2019-05-22T04:28:10.667Z,9.30
2019-05-22T04:30:42.208Z,9.80
2019-05-22T04:33:13.554Z,7.73
2019-05-22T04:35:44.742Z,9.53
2019-05-22T04:38:13.995Z,9.97
2019-05-22T04:40:49.130Z,7.57
2019-05-22T04:43:22.264Z,8.67
2019-05-22T04:45:53.364Z,13.03
2019-05-22T04:48:25.621Z,5.40
2019-05-22T04:50:54.923Z,11.67
2019-05-22T04:53:24.475Z,7.27
2019-05-22T04:55:54.711Z,9.43
2019-05-22T04:58:25.658Z,8.77
2019-05-22T05:00:54.910Z,7.90
2019-05-22T05:03:25.857Z,6.17
2019-05-22T05:05:56.290Z,8.03
2019-05-22T05:08:26.378Z,7.80
2019-05-22T05:11:02.623Z,8.50
2019-05-22T05:13:32.099Z,6.67
2019-05-22T05:16:01.725Z,11.17
2019-05-22T05:18:31.782Z,6.93
2019-05-22T05:21:01.800Z,6.90
2019-05-22T05:23:31.512Z,7.17
2019-05-22T05:26:00.551Z,6.30
2019-05-22T05:28:33.355Z,7.90
2019-05-22T05:31:02.590Z,7.63
2019-05-22T05:33:32.523Z,8.17
2019-05-22T05:36:03.915Z,6.93
2019-05-22T05:38:39.355Z,10.80
2019-05-22T05:41:08.986Z,7.80
2019-05-22T05:43:37.999Z,6.53
2019-05-22T05:46:06.946Z,6.50
2019-05-22T05:48:36.000Z,7.03
2019-05-22T05:51:08.431Z,8.33
2019-05-22T05:53:59.774Z,8.47
2019-05-22T05:56:32.113Z,7.43
2019-05-22T05:59:03.517Z,6.73
2019-05-22T06:01:35.971Z,9.67
2019-05-22T06:04:06.376Z,10.80
2019-05-22T06:06:41.429Z,10.23
2019-05-22T06:09:13.608Z,8.93
2019-05-22T06:11:46.451Z,11.00
2019-05-22T06:14:28.492Z,9.50
2019-05-22T06:17:26.306Z,10.20
2019-05-22T06:20:09.957Z,8.43
2019-05-22T06:22:40.765Z,10.63
2019-05-22T06:25:10.745Z,10.67
2019-05-22T06:27:41.254Z,10.80
2019-05-22T06:30:21.839Z,10.97
2019-05-22T06:33:12.526Z,8.33
2019-05-22T06:35:42.621Z,5.93
2019-05-22T06:38:33.929Z,6.77
2019-05-22T06:41:02.956Z,7.33
2019-05-22T06:43:37.608Z,5.70
2019-05-22T06:46:08.394Z,6.97
2019-05-22T06:48:37.718Z,4.83
2019-05-22T06:51:18.616Z,5.17
2019-05-22T06:53:37.042Z,6.27
2019-05-22T06:56:06.186Z,5.73
2019-05-22T06:58:35.102Z,5.07
2019-05-22T07:01:05.761Z,5.73
2019-05-22T07:03:35.125Z,8.57
2019-05-22T07:06:04.127Z,6.57
2019-05-22T07:08:33.803Z,6.53
2019-05-22T07:11:02.710Z,7.77
2019-05-22T07:13:31.761Z,5.57
2019-05-22T07:16:03.695Z,6.07
2019-05-22T07:18:33.140Z,7.03
2019-05-22T07:21:03.756Z,6.03
2019-05-22T07:23:34.959Z,10.17
2019-05-22T07:26:04.333Z,6.87
2019-05-22T07:28:33.566Z,8.77
2019-05-22T07:31:03.076Z,9.43
2019-05-22T07:33:32.715Z,9.73
2019-05-22T07:36:13.579Z,7.63
2019-05-22T07:38:33.863Z,8.67
2019-05-22T07:41:02.763Z,11.07
2019-05-22T07:43:31.870Z,10.37
2019-05-22T07:46:00.715Z,8.13
2019-05-22T07:48:32.003Z,8.93
2019-05-22T07:51:02.786Z,8.67
2019-05-22T07:53:31.711Z,7.37
2019-05-22T07:56:04.303Z,8.00
2019-05-22T07:58:34.725Z,8.20
2019-05-22T08:01:03.605Z,8.07
2019-05-22T08:03:33.242Z,9.40
2019-05-22T08:06:02.895Z,7.67
2019-05-22T08:08:33.397Z,8.67
2019-05-22T08:11:02.319Z,8.77
2019-05-22T08:13:32.393Z,8.17
2019-05-22T08:16:02.438Z,9.27
2019-05-22T08:18:33.190Z,6.47
2019-05-22T08:21:02.474Z,10.83
2019-05-22T08:23:31.706Z,7.37
2019-05-22T08:26:01.159Z,9.77
2019-05-22T08:28:31.994Z,9.20
2019-05-22T08:31:01.661Z,7.33
2019-05-22T08:33:33.506Z,8.33
2019-05-22T08:36:03.725Z,6.53
2019-05-22T08:38:34.029Z,7.50
2019-05-22T08:41:05.433Z,7.53
2019-05-22T08:43:56.125Z,6.93
2019-05-22T08:46:08.153Z,6.90
2019-05-22T08:48:39.194Z,12.23
2019-05-22T08:51:10.070Z,9.13
2019-05-22T08:53:47.382Z,7.57
2019-05-22T08:56:09.859Z,8.40
2019-05-22T08:58:39.822Z,6.60
2019-05-22T09:01:10.319Z,6.53
2019-05-22T09:03:39.705Z,7.53
2019-05-22T09:06:09.147Z,6.70
2019-05-22T09:08:38.118Z,7.63
2019-05-22T09:11:07.383Z,8.03
2019-05-22T09:13:36.817Z,6.30
2019-05-22T09:16:06.498Z,6.00
2019-05-22T09:18:35.374Z,6.47
2019-05-22T09:21:04.703Z,6.93
2019-05-22T09:23:35.835Z,5.73
2019-05-22T09:26:05.928Z,5.97
2019-05-22T09:28:34.793Z,7.53
2019-05-22T09:31:03.898Z,6.70
2019-05-22T09:33:34.287Z,5.67
2019-05-22T09:36:03.719Z,5.90
2019-05-22T09:38:33.062Z,7.40
2019-05-22T09:41:02.321Z,6.90
2019-05-22T09:43:31.144Z,5.90
2019-05-22T09:46:00.530Z,7.07
2019-05-22T09:48:29.495Z,6.40
2019-05-22T09:50:59.551Z,5.67
2019-05-22T09:53:29.753Z,6.90
2019-05-22T09:55:58.805Z,6.80
2019-05-22T09:58:27.866Z,7.13
2019-05-22T10:00:57.366Z,7.67
2019-05-22T10:03:26.842Z,5.53
2019-05-22T10:05:56.174Z,8.77
2019-05-22T10:08:26.494Z,5.70
2019-05-22T10:10:55.448Z,7.47
2019-05-22T10:13:24.602Z,5.20
2019-05-22T10:15:54.291Z,6.50
2019-05-22T10:18:23.628Z,6.57
2019-05-22T10:20:54.386Z,7.10
2019-05-22T10:23:24.098Z,6.57
2019-05-22T10:25:53.361Z,9.67
2019-05-22T10:28:22.970Z,7.97
2019-05-22T10:30:52.595Z,7.83
2019-05-22T10:33:21.927Z,8.07
2019-05-22T10:35:52.510Z,6.37
2019-05-22T10:38:21.426Z,6.40
2019-05-22T10:40:50.208Z,6.87
2019-05-22T10:43:19.264Z,9.57
2019-05-22T10:45:49.332Z,9.77
2019-05-22T10:48:18.504Z,7.90
2019-05-22T10:50:47.446Z,9.10
2019-05-22T10:53:32.211Z,6.63
2019-05-22T10:55:47.409Z,6.20
2019-05-22T10:58:16.287Z,10.73
2019-05-22T11:00:45.251Z,10.33
2019-05-22T11:03:15.799Z,9.27
2019-05-22T11:05:45.709Z,7.07
2019-05-22T11:08:14.541Z,7.10
2019-05-22T11:10:45.290Z,11.00
2019-05-22T11:13:14.032Z,8.63
2019-05-22T11:15:43.103Z,7.20
2019-05-22T11:18:14.112Z,5.93
2019-05-22T11:20:43.865Z,9.57
2019-05-22T11:23:13.036Z,6.57
2019-05-22T11:25:42.072Z,6.10
2019-05-22T11:28:10.918Z,7.70
2019-05-22T11:30:40.626Z,7.13
2019-05-22T11:33:10.037Z,6.37
2019-05-22T11:35:40.156Z,6.73
2019-05-22T11:38:09.747Z,5.30
2019-05-22T11:40:39.466Z,8.63
2019-05-22T11:43:09.303Z,6.80
2019-05-22T11:45:38.589Z,7.90
2019-05-22T11:48:07.637Z,8.53
2019-05-22T11:50:36.958Z,6.77
2019-05-22T11:53:05.968Z,4.97
2019-05-22T11:55:45.288Z,7.07
2019-05-22T11:58:05.768Z,6.73
2019-05-22T12:00:34.731Z,6.30
2019-05-22T12:03:05.872Z,9.13
2019-05-22T12:05:34.896Z,7.23
2019-05-22T12:08:04.675Z,6.13
2019-05-22T12:10:33.644Z,6.27
2019-05-22T12:13:02.851Z,7.97
2019-05-22T12:15:33.868Z,9.63
2019-05-22T12:18:02.999Z,7.27
2019-05-22T12:20:32.609Z,7.30
2019-05-22T12:23:01.701Z,9.90
2019-05-22T12:25:30.664Z,11.23
2019-05-22T12:27:59.908Z,9.23
2019-05-22T12:30:29.008Z,8.10
2019-05-22T12:32:58.663Z,9.57
2019-05-22T12:35:28.508Z,11.30
2019-05-22T12:37:57.713Z,12.33
2019-05-22T12:40:28.335Z,10.87
2019-05-22T12:42:57.683Z,10.67
2019-05-22T12:45:29.839Z,7.90
2019-05-22T12:48:01.275Z,8.60
2019-05-22T12:50:31.631Z,9.60
2019-05-22T12:53:03.632Z,11.17
2019-05-22T12:55:33.277Z,8.50
2019-05-22T12:58:03.700Z,10.73
2019-05-22T13:00:33.735Z,10.30
2019-05-22T13:03:04.005Z,10.87
2019-05-22T13:05:35.697Z,9.47
2019-05-22T13:08:05.283Z,10.23
2019-05-22T13:10:35.065Z,11.43
2019-05-22T13:13:04.203Z,10.17
2019-05-22T13:15:35.386Z,10.37
2019-05-22T13:18:05.424Z,11.83
2019-05-22T13:20:42.944Z,9.80
2019-05-22T13:23:11.160Z,12.17
2019-05-22T13:25:42.519Z,13.40
2019-05-22T13:28:14.505Z,12.10
2019-05-22T13:30:46.658Z,11.33
2019-05-22T13:33:17.941Z,12.20
2019-05-22T13:35:48.072Z,12.30
2019-05-22T13:38:18.490Z,12.03
2019-05-22T13:40:48.462Z,18.43
2019-05-22T13:43:17.598Z,11.90
2019-05-22T13:45:46.604Z,12.57
2019-05-22T13:48:15.556Z,13.47
2019-05-22T13:50:45.240Z,13.23
2019-05-22T13:53:17.087Z,9.87
2019-05-22T13:55:46.464Z,12.97
2019-05-22T13:58:15.893Z,12.30
2019-05-22T14:00:45.127Z,9.57
2019-05-22T14:03:15.956Z,13.00
2019-05-22T14:05:46.095Z,11.20
2019-05-22T14:08:15.176Z,14.27
2019-05-22T14:10:44.937Z,13.73
2019-05-22T14:13:14.992Z,11.83
2019-05-22T14:15:52.486Z,13.37
2019-05-22T14:18:14.849Z,13.40
2019-05-22T14:20:44.101Z,12.07
2019-05-22T14:23:13.510Z,13.23
2019-05-22T14:25:42.992Z,13.27
2019-05-22T14:28:13.402Z,16.93
2019-05-22T14:30:42.852Z,13.33
2019-05-22T14:33:12.190Z,19.70
2019-05-22T14:35:48.220Z,12.63
2019-05-22T14:38:13.623Z,14.83
2019-05-22T14:40:42.962Z,16.20
2019-05-22T14:43:12.781Z,17.27
2019-05-22T14:45:45.765Z,14.23
2019-05-22T14:48:15.018Z,14.00
2019-05-22T14:50:44.401Z,22.33
2019-05-22T14:53:14.353Z,15.63
2019-05-22T14:55:45.267Z,15.13
2019-05-22T14:58:16.315Z,14.77
2019-05-22T15:00:46.369Z,17.80
2019-05-22T15:03:15.808Z,12.50
2019-05-22T15:05:45.348Z,16.80
2019-05-22T15:08:14.405Z,16.37
2019-05-22T15:10:44.733Z,14.63
2019-05-22T15:13:13.907Z,16.57
2019-05-22T15:15:42.963Z,16.77
2019-05-22T15:18:12.184Z,15.53
2019-05-22T15:20:42.598Z,16.03
2019-05-22T15:23:11.642Z,13.53
2019-05-22T15:25:40.723Z,16.37
2019-05-22T15:28:10.002Z,18.00
2019-05-22T15:30:39.387Z,22.10
2019-05-22T15:33:09.319Z,20.50
2019-05-22T15:35:38.310Z,18.37
2019-05-22T15:38:10.803Z,18.97
2019-05-22T15:40:40.533Z,23.83
2019-05-22T15:43:11.676Z,25.00
2019-05-22T15:45:42.145Z,20.37
2019-05-22T15:48:19.331Z,18.00
2019-05-22T15:50:50.654Z,23.17
2019-05-22T15:53:22.882Z,19.47
2019-05-22T15:55:52.430Z,19.13
2019-05-22T15:58:21.339Z,18.73
2019-05-22T16:00:52.791Z,17.73
2019-05-22T16:03:24.675Z,18.33
2019-05-22T16:05:54.671Z,16.47
2019-05-22T16:08:23.833Z,18.53
2019-05-22T16:10:58.875Z,15.97
2019-05-22T16:13:27.065Z,18.57
2019-05-22T16:15:57.789Z,18.53
2019-05-22T16:18:38.810Z,18.37
2019-05-22T16:21:10.379Z,16.23
2019-05-22T16:23:39.818Z,16.10
2019-05-22T16:26:10.326Z,18.03
2019-05-22T16:28:42.323Z,18.27
2019-05-22T16:31:12.647Z,19.87
2019-05-22T16:33:43.258Z,26.13
2019-05-22T16:36:13.598Z,17.37
2019-05-22T16:38:43.980Z,18.67
2019-05-22T16:41:13.627Z,18.17
2019-05-22T16:43:49.705Z,15.57
2019-05-22T16:46:16.965Z,14.20
2019-05-22T16:48:48.199Z,20.70
2019-05-22T16:51:20.008Z,19.00
2019-05-22T16:53:54.725Z,17.63
2019-05-22T16:56:25.521Z,14.20
2019-05-22T16:58:55.970Z,21.33
2019-05-22T17:01:27.461Z,19.67
2019-05-22T17:03:59.084Z,20.80
2019-05-22T17:06:28.357Z,19.93
2019-05-22T17:09:00.675Z,18.53
2019-05-22T17:11:31.519Z,15.93
2019-05-22T17:14:03.375Z,20.03
2019-05-22T17:16:34.600Z,18.63
2019-05-22T17:19:23.820Z,17.73
2019-05-22T17:21:36.697Z,18.97
2019-05-22T17:24:07.010Z,20.03
2019-05-22T17:26:37.070Z,20.17
2019-05-22T17:29:06.400Z,18.33
2019-05-22T17:31:35.899Z,19.33
2019-05-22T17:34:07.591Z,15.37
2019-05-22T17:36:37.496Z,18.37
2019-05-22T17:39:09.831Z,15.93
2019-05-22T17:41:41.559Z,20.27
2019-05-22T17:44:12.112Z,17.90
2019-05-22T17:46:44.762Z,12.60
2019-05-22T17:49:14.071Z,14.50
2019-05-22T17:51:43.731Z,13.77
2019-05-22T17:54:12.713Z,13.63
2019-05-22T17:56:41.583Z,17.33
2019-05-22T17:59:10.454Z,18.00
2019-05-22T18:01:39.541Z,16.47
2019-05-22T18:04:08.406Z,14.07
2019-05-22T18:06:37.786Z,20.33
2019-05-22T18:09:09.104Z,12.77
2019-05-22T18:11:38.020Z,16.77
2019-05-22T18:14:07.560Z,25.33
2019-05-22T18:16:37.206Z,15.47
2019-05-22T18:19:07.307Z,14.60
2019-05-22T18:21:43.527Z,18.27
2019-05-22T18:24:13.903Z,16.23
2019-05-22T18:26:51.930Z,14.60
2019-05-22T18:29:22.694Z,17.60
2019-05-22T18:31:58.178Z,18.63
2019-05-22T18:34:29.309Z,18.47
2019-05-22T18:36:58.375Z,16.07
2019-05-22T18:39:32.549Z,20.10
2019-05-22T18:42:01.479Z,15.50
2019-05-22T18:44:30.419Z,15.33
2019-05-22T18:46:59.421Z,16.67
2019-05-22T18:49:36.754Z,18.40
2019-05-22T18:52:06.364Z,20.50
2019-05-22T18:54:35.207Z,15.57
2019-05-22T18:57:04.294Z,15.60
2019-05-22T18:59:33.391Z,14.47
2019-05-22T19:02:02.316Z,20.10
2019-05-22T19:04:32.407Z,14.70
2019-05-22T19:07:01.821Z,12.47
2019-05-22T19:09:30.966Z,15.90
2019-05-22T19:11:59.820Z,17.20
2019-05-22T19:14:28.915Z,17.77
2019-05-22T19:16:58.972Z,14.90
2019-05-22T19:19:28.588Z,11.73
2019-05-22T19:21:57.716Z,11.97
2019-05-22T19:24:26.566Z,16.10
2019-05-22T19:26:55.424Z,9.23
2019-05-22T19:29:24.540Z,13.43
2019-05-22T19:31:53.806Z,12.00
2019-05-22T19:34:22.896Z,11.83
2019-05-22T19:36:52.155Z,16.43
2019-05-22T19:39:21.012Z,26.47
2019-05-22T19:42:02.028Z,15.93
2019-05-22T19:44:21.078Z,17.07
2019-05-22T19:46:51.227Z,12.63
2019-05-22T19:49:21.025Z,14.37
2019-05-22T19:51:51.397Z,17.20
2019-05-22T19:54:41.048Z,13.23
2019-05-22T19:57:11.734Z,12.20
2019-05-22T19:59:40.751Z,15.73
2019-05-22T20:02:25.255Z,12.87
2019-05-22T20:04:54.178Z,12.77
2019-05-22T20:07:23.533Z,10.13
2019-05-22T20:09:53.963Z,10.27
2019-05-22T20:12:25.032Z,10.07
2019-05-22T20:14:55.137Z,11.33
2019-05-22T20:17:24.130Z,13.30
2019-05-22T20:19:54.887Z,11.73
2019-05-22T20:22:28.787Z,11.23
2019-05-22T20:24:55.988Z,11.27
2019-05-22T20:27:41.533Z,12.13
2019-05-22T20:30:16.098Z,9.80
2019-05-22T20:32:53.445Z,14.70
2019-05-22T20:35:24.488Z,12.77
2019-05-22T20:38:00.291Z,9.40
2019-05-22T20:40:29.046Z,11.50
2019-05-22T20:42:58.202Z,15.20
2019-05-22T20:45:28.105Z,12.50
2019-05-22T20:48:06.576Z,12.10
2019-05-22T20:50:37.684Z,10.97
2019-05-22T20:53:08.087Z,12.50
2019-05-22T20:55:38.874Z,12.13
2019-05-22T20:58:08.996Z,12.43
2019-05-22T21:00:40.614Z,9.13
2019-05-22T21:03:10.716Z,11.20
2019-05-22T21:05:42.645Z,11.93
2019-05-22T21:08:16.319Z,7.17
2019-05-22T21:10:48.150Z,13.17
2019-05-22T21:13:18.975Z,9.20
2019-05-22T21:15:48.539Z,10.50
2019-05-22T21:18:19.661Z,8.97
2019-05-22T21:20:54.652Z,7.47
2019-05-22T21:23:22.149Z,10.50
2019-05-22T21:25:52.256Z,10.57
2019-05-22T21:28:21.678Z,10.40
2019-05-22T21:30:53.397Z,11.70
2019-05-22T21:33:23.735Z,11.33
2019-05-22T21:35:52.883Z,8.23
2019-05-22T21:38:22.921Z,13.10
2019-05-22T21:40:53.660Z,10.67
2019-05-22T21:43:22.927Z,7.37
2019-05-22T21:45:52.320Z,8.00
2019-05-22T21:48:21.410Z,9.80
2019-05-22T21:50:52.566Z,10.27
2019-05-22T21:53:22.129Z,9.37
2019-05-22T21:56:03.596Z,10.13
2019-05-22T21:58:21.720Z,5.67
2019-05-22T22:00:58.776Z,6.23
2019-05-22T22:03:34.090Z,7.23
2019-05-22T22:06:04.954Z,6.27
2019-05-22T22:08:34.495Z,12.20
2019-05-22T22:11:05.618Z,6.27
2019-05-22T22:13:35.317Z,6.33
2019-05-22T22:16:04.462Z,9.80
2019-05-22T22:18:34.188Z,9.50
2019-05-22T22:21:05.376Z,5.93
2019-05-22T22:23:35.958Z,8.67
2019-05-22T22:26:24.003Z,7.10
2019-05-22T22:28:37.981Z,6.23
2019-05-22T22:31:11.550Z,7.90
2019-05-22T22:33:42.906Z,9.47
2019-05-22T22:36:12.572Z,10.00
2019-05-22T22:38:43.155Z,6.37
2019-05-22T22:41:14.509Z,5.60
2019-05-22T22:43:46.766Z,7.07
2019-05-22T22:46:21.401Z,10.73
2019-05-22T22:48:53.045Z,6.30
2019-05-22T22:51:25.378Z,7.03
2019-05-22T22:53:56.358Z,6.50
2019-05-22T22:56:26.994Z,5.37
2019-05-22T22:58:56.435Z,4.90
2019-05-22T23:01:29.545Z,5.37
2019-05-22T23:04:01.348Z,5.63
2019-05-22T23:06:31.343Z,5.43
2019-05-22T23:09:01.193Z,8.00
2019-05-22T23:11:30.990Z,5.63
2019-05-22T23:14:02.699Z,7.83
2019-05-22T23:16:32.757Z,5.50
2019-05-22T23:19:14.813Z,5.90
2019-05-22T23:21:44.082Z,15.27
2019-05-22T23:24:14.662Z,7.47
2019-05-22T23:26:44.943Z,8.20
2019-05-22T23:29:15.836Z,7.90
2019-05-22T23:31:45.359Z,5.70
2019-05-22T23:34:15.431Z,7.93
2019-05-22T23:36:45.386Z,7.53
2019-05-22T23:39:15.370Z,11.00
2019-05-22T23:41:45.322Z,7.57
2019-05-22T23:44:17.115Z,8.80
2019-05-22T23:46:46.397Z,7.23
2019-05-22T23:49:16.130Z,7.30
2019-05-22T23:51:45.504Z,12.03
2019-05-22T23:54:14.385Z,5.50
2019-05-22T23:56:44.628Z,3.97
2019-05-22T23:59:16.501Z,5.37
